sensor_id;sensor_type;location;lat;lon;timestamp;pressure;altitude;pressure_sealevel;temperature;humidity
62789;BME280;66401;42.016;21.454;2023-08-24T00:00:49;98240.06;;;24.74;60.42
62789;BME280;66401;42.016;21.454;2023-08-24T00:03:15;98238.81;;;24.66;60.65
62789;BME280;66401;42.016;21.454;2023-08-24T00:05:40;98241.44;;;24.71;60.81
62789;BME280;66401;42.016;21.454;2023-08-24T00:08:08;98248.06;;;24.74;60.78
62789;BME280;66401;42.016;21.454;2023-08-24T00:10:35;98248.00;;;24.79;60.39
62789;BME280;66401;42.016;21.454;2023-08-24T00:13:02;98255.16;;;24.83;60.24
62789;BME280;66401;42.016;21.454;2023-08-24T00:15:27;98254.06;;;24.84;59.48
62789;BME280;66401;42.016;21.454;2023-08-24T00:17:53;98250.31;;;24.86;60.52
62789;BME280;66401;42.016;21.454;2023-08-24T00:20:19;98252.19;;;24.85;60.11
62789;BME280;66401;42.016;21.454;2023-08-24T00:22:46;98239.66;;;24.86;59.69
62789;BME280;66401;42.016;21.454;2023-08-24T00:25:12;98251.41;;;24.84;60.17
62789;BME280;66401;42.016;21.454;2023-08-24T00:27:37;98246.66;;;24.81;60.65
62789;BME280;66401;42.016;21.454;2023-08-24T00:30:05;98247.44;;;24.82;60.43
62789;BME280;66401;42.016;21.454;2023-08-24T00:32:32;98243.56;;;24.69;61.05
62789;BME280;66401;42.016;21.454;2023-08-24T00:35:05;98203.38;;;24.47;61.51
62789;BME280;66401;42.016;21.454;2023-08-24T00:37:35;98241.50;;;24.66;60.58
62789;BME280;66401;42.016;21.454;2023-08-24T00:40:02;98250.06;;;24.63;61.67
62789;BME280;66401;42.016;21.454;2023-08-24T00:42:37;98252.75;;;24.58;61.90
62789;BME280;66401;42.016;21.454;2023-08-24T00:45:03;98253.84;;;24.57;61.83
62789;BME280;66401;42.016;21.454;2023-08-24T00:47:29;98249.00;;;24.59;62.59
62789;BME280;66401;42.016;21.454;2023-08-24T00:49:55;98247.22;;;24.54;61.53
62789;BME280;66401;42.016;21.454;2023-08-24T00:52:21;98241.75;;;24.41;61.88
62789;BME280;66401;42.016;21.454;2023-08-24T00:54:47;98237.56;;;24.30;61.57
62789;BME280;66401;42.016;21.454;2023-08-24T00:57:12;98234.13;;;24.29;60.76
62789;BME280;66401;42.016;21.454;2023-08-24T00:59:39;98236.16;;;24.13;61.06
62789;BME280;66401;42.016;21.454;2023-08-24T01:02:05;98241.63;;;23.93;60.70
62789;BME280;66401;42.016;21.454;2023-08-24T01:04:30;98234.13;;;24.00;61.11
62789;BME280;66401;42.016;21.454;2023-08-24T01:06:56;98222.28;;;23.87;61.34
62789;BME280;66401;42.016;21.454;2023-08-24T01:09:22;98232.84;;;23.92;61.31
62789;BME280;66401;42.016;21.454;2023-08-24T01:12:05;98232.81;;;23.97;62.33
62789;BME280;66401;42.016;21.454;2023-08-24T01:14:59;98232.53;;;23.99;60.99
62789;BME280;66401;42.016;21.454;2023-08-24T01:17:28;98235.25;;;23.94;61.67
62789;BME280;66401;42.016;21.454;2023-08-24T01:19:55;98233.13;;;23.91;61.38
62789;BME280;66401;42.016;21.454;2023-08-24T01:25:14;98232.59;;;23.94;61.65
62789;BME280;66401;42.016;21.454;2023-08-24T01:27:40;98222.84;;;23.84;61.94
62789;BME280;66401;42.016;21.454;2023-08-24T01:30:08;98228.94;;;23.85;61.09
62789;BME280;66401;42.016;21.454;2023-08-24T01:32:34;98222.50;;;23.91;61.80
62789;BME280;66401;42.016;21.454;2023-08-24T01:35:04;98214.06;;;23.84;61.56
62789;BME280;66401;42.016;21.454;2023-08-24T01:37:31;98220.13;;;23.89;62.28
62789;BME280;66401;42.016;21.454;2023-08-24T01:40:10;98220.91;;;23.90;62.91
62789;BME280;66401;42.016;21.454;2023-08-24T01:45:10;98227.28;;;23.94;62.07
62789;BME280;66401;42.016;21.454;2023-08-24T01:47:39;98213.44;;;23.92;62.63
62789;BME280;66401;42.016;21.454;2023-08-24T01:50:07;98213.69;;;23.66;63.67
62789;BME280;66401;42.016;21.454;2023-08-24T01:52:33;98226.38;;;23.75;64.08
62789;BME280;66401;42.016;21.454;2023-08-24T01:54:59;98228.41;;;23.83;62.83
62789;BME280;66401;42.016;21.454;2023-08-24T01:57:25;98227.59;;;23.87;63.67
62789;BME280;66401;42.016;21.454;2023-08-24T01:59:51;98226.97;;;23.66;63.62
62789;BME280;66401;42.016;21.454;2023-08-24T02:02:16;98233.91;;;23.62;64.58
62789;BME280;66401;42.016;21.454;2023-08-24T02:04:42;98233.59;;;23.64;64.23
62789;BME280;66401;42.016;21.454;2023-08-24T02:07:08;98235.44;;;23.68;63.67
62789;BME280;66401;42.016;21.454;2023-08-24T02:09:33;98215.41;;;23.42;64.70
62789;BME280;66401;42.016;21.454;2023-08-24T02:11:59;98247.22;;;23.52;64.30
62789;BME280;66401;42.016;21.454;2023-08-24T02:14:24;98247.50;;;23.56;63.49
62789;BME280;66401;42.016;21.454;2023-08-24T02:16:49;98240.31;;;23.51;63.44
62789;BME280;66401;42.016;21.454;2023-08-24T02:19:15;98239.44;;;23.27;63.69
62789;BME280;66401;42.016;21.454;2023-08-24T02:21:41;98248.94;;;23.33;63.78
62789;BME280;66401;42.016;21.454;2023-08-24T02:24:06;98247.59;;;23.35;63.67
62789;BME280;66401;42.016;21.454;2023-08-24T02:26:32;98247.63;;;23.30;64.56
62789;BME280;66401;42.016;21.454;2023-08-24T02:28:57;98248.69;;;23.29;64.53
62789;BME280;66401;42.016;21.454;2023-08-24T02:31:23;98252.72;;;23.27;64.43
62789;BME280;66401;42.016;21.454;2023-08-24T02:33:49;98251.66;;;23.28;64.25
62789;BME280;66401;42.016;21.454;2023-08-24T02:36:14;98254.88;;;23.20;64.45
62789;BME280;66401;42.016;21.454;2023-08-24T02:38:40;98249.09;;;23.07;64.88
62789;BME280;66401;42.016;21.454;2023-08-24T02:41:07;98253.34;;;23.03;65.18
62789;BME280;66401;42.016;21.454;2023-08-24T02:43:33;98259.50;;;22.83;65.86
62789;BME280;66401;42.016;21.454;2023-08-24T02:46:02;98250.50;;;22.84;65.87
62789;BME280;66401;42.016;21.454;2023-08-24T02:48:31;98248.66;;;22.75;65.87
62789;BME280;66401;42.016;21.454;2023-08-24T02:50:58;98252.38;;;22.79;66.63
62789;BME280;66401;42.016;21.454;2023-08-24T02:53:24;98260.31;;;22.89;66.02
62789;BME280;66401;42.016;21.454;2023-08-24T02:55:49;98256.59;;;22.90;65.86
62789;BME280;66401;42.016;21.454;2023-08-24T02:58:15;98258.47;;;22.90;66.53
62789;BME280;66401;42.016;21.454;2023-08-24T03:00:40;98256.84;;;22.99;66.07
62789;BME280;66401;42.016;21.454;2023-08-24T03:03:06;98250.50;;;22.90;65.49
62789;BME280;66401;42.016;21.454;2023-08-24T03:05:32;98253.94;;;22.75;66.32
62789;BME280;66401;42.016;21.454;2023-08-24T03:07:58;98267.25;;;22.70;67.12
62789;BME280;66401;42.016;21.454;2023-08-24T03:10:24;98262.97;;;22.79;67.29
62789;BME280;66401;42.016;21.454;2023-08-24T03:12:50;98266.94;;;22.92;67.08
62789;BME280;66401;42.016;21.454;2023-08-24T03:15:15;98268.81;;;22.86;67.27
62789;BME280;66401;42.016;21.454;2023-08-24T03:17:41;98270.69;;;22.75;67.23
62789;BME280;66401;42.016;21.454;2023-08-24T03:20:07;98275.78;;;22.62;68.16
62789;BME280;66401;42.016;21.454;2023-08-24T03:22:34;98276.84;;;22.61;67.64
62789;BME280;66401;42.016;21.454;2023-08-24T03:24:59;98273.34;;;22.75;67.39
62789;BME280;66401;42.016;21.454;2023-08-24T03:27:25;98284.47;;;22.82;67.92
62789;BME280;66401;42.016;21.454;2023-08-24T03:29:53;98291.38;;;22.94;66.84
62789;BME280;66401;42.016;21.454;2023-08-24T03:32:18;98291.13;;;22.80;67.50
62789;BME280;66401;42.016;21.454;2023-08-24T03:34:44;98293.25;;;22.78;67.83
62789;BME280;66401;42.016;21.454;2023-08-24T03:37:09;98290.59;;;22.73;68.22
62789;BME280;66401;42.016;21.454;2023-08-24T03:39:38;98293.22;;;22.83;67.14
62789;BME280;66401;42.016;21.454;2023-08-24T03:42:05;98300.16;;;22.79;67.61
62789;BME280;66401;42.016;21.454;2023-08-24T03:44:30;98300.94;;;22.84;67.06
62789;BME280;66401;42.016;21.454;2023-08-24T03:46:55;98306.53;;;22.88;67.37
62789;BME280;66401;42.016;21.454;2023-08-24T03:49:21;98304.66;;;22.83;67.52
62789;BME280;66401;42.016;21.454;2023-08-24T03:51:46;98302.84;;;22.69;66.97
62789;BME280;66401;42.016;21.454;2023-08-24T03:54:12;98294.31;;;22.67;66.10
62789;BME280;66401;42.016;21.454;2023-08-24T03:56:37;98312.38;;;22.75;66.57
62789;BME280;66401;42.016;21.454;2023-08-24T03:59:03;98298.91;;;22.25;67.21
62789;BME280;66401;42.016;21.454;2023-08-24T04:01:28;98322.47;;;22.57;67.68
62789;BME280;66401;42.016;21.454;2023-08-24T04:03:54;98320.91;;;22.56;68.04
62789;BME280;66401;42.016;21.454;2023-08-24T04:06:19;98326.19;;;22.67;67.63
62789;BME280;66401;42.016;21.454;2023-08-24T04:08:45;98320.34;;;22.70;66.62
62789;BME280;66401;42.016;21.454;2023-08-24T04:11:10;98327.53;;;22.64;67.28
62789;BME280;66401;42.016;21.454;2023-08-24T04:13:36;98320.88;;;22.72;67.22
62789;BME280;66401;42.016;21.454;2023-08-24T04:16:01;98323.78;;;22.75;67.72
62789;BME280;66401;42.016;21.454;2023-08-24T04:18:29;98326.19;;;22.67;69.06
62789;BME280;66401;42.016;21.454;2023-08-24T04:20:54;98327.78;;;22.68;67.95
62789;BME280;66401;42.016;21.454;2023-08-24T04:23:24;98335.19;;;22.81;67.42
62789;BME280;66401;42.016;21.454;2023-08-24T04:25:51;98321.66;;;22.72;68.81
62789;BME280;66401;42.016;21.454;2023-08-24T04:28:16;98333.63;;;22.90;67.85
62789;BME280;66401;42.016;21.454;2023-08-24T04:30:49;98335.19;;;22.91;67.16
62789;BME280;66401;42.016;21.454;2023-08-24T04:33:14;98344.75;;;22.97;68.19
62789;BME280;66401;42.016;21.454;2023-08-24T04:35:40;98349.53;;;22.95;68.71
62789;BME280;66401;42.016;21.454;2023-08-24T04:38:05;98350.06;;;22.92;68.54
62789;BME280;66401;42.016;21.454;2023-08-24T04:40:45;98355.88;;;23.04;68.02
62789;BME280;66401;42.016;21.454;2023-08-24T04:43:10;98349.00;;;22.98;67.03
62789;BME280;66401;42.016;21.454;2023-08-24T04:45:36;98344.72;;;23.02;66.81
62789;BME280;66401;42.016;21.454;2023-08-24T04:48:01;98351.41;;;22.79;68.68
62789;BME280;66401;42.016;21.454;2023-08-24T04:50:28;98342.06;;;23.02;66.91
62789;BME280;66401;42.016;21.454;2023-08-24T04:52:53;98356.66;;;23.10;67.58
62789;BME280;66401;42.016;21.454;2023-08-24T04:55:19;98354.44;;;23.32;66.70
62789;BME280;66401;42.016;21.454;2023-08-24T04:57:44;98366.06;;;23.57;66.12
62789;BME280;66401;42.016;21.454;2023-08-24T05:00:10;98356.47;;;23.61;65.63
62789;BME280;66401;42.016;21.454;2023-08-24T05:02:41;98382.66;;;23.88;64.78
62789;BME280;66401;42.016;21.454;2023-08-24T05:05:08;98381.81;;;23.92;65.04
62789;BME280;66401;42.016;21.454;2023-08-24T05:07:37;98384.97;;;23.99;65.78
62789;BME280;66401;42.016;21.454;2023-08-24T05:10:03;98383.97;;;24.30;62.97
62789;BME280;66401;42.016;21.454;2023-08-24T05:12:29;98385.28;;;24.37;64.77
62789;BME280;66401;42.016;21.454;2023-08-24T05:14:55;98382.31;;;24.44;63.80
62789;BME280;66401;42.016;21.454;2023-08-24T05:17:20;98384.13;;;24.77;63.07
62789;BME280;66401;42.016;21.454;2023-08-24T05:19:51;98386.25;;;24.80;62.42
62789;BME280;66401;42.016;21.454;2023-08-24T05:22:16;98384.13;;;24.77;63.76
62789;BME280;66401;42.016;21.454;2023-08-24T05:24:42;98375.38;;;25.01;62.38
62789;BME280;66401;42.016;21.454;2023-08-24T05:27:07;98378.41;;;25.18;60.84
62789;BME280;66401;42.016;21.454;2023-08-24T05:29:33;98375.91;;;25.03;60.98
62789;BME280;66401;42.016;21.454;2023-08-24T05:31:59;98378.28;;;25.28;59.99
62789;BME280;66401;42.016;21.454;2023-08-24T05:34:24;98369.22;;;25.29;60.84
62789;BME280;66401;42.016;21.454;2023-08-24T05:36:50;98378.19;;;25.38;60.48
62789;BME280;66401;42.016;21.454;2023-08-24T05:39:16;98375.94;;;25.46;60.08
62789;BME280;66401;42.016;21.454;2023-08-24T05:41:41;98381.31;;;25.64;59.00
62789;BME280;66401;42.016;21.454;2023-08-24T05:44:07;98390.72;;;25.57;58.99
62789;BME280;66401;42.016;21.454;2023-08-24T05:46:32;98387.63;;;25.92;57.80
62789;BME280;66401;42.016;21.454;2023-08-24T05:48:58;98374.78;;;25.94;58.47
62789;BME280;66401;42.016;21.454;2023-08-24T05:51:26;98377.50;;;26.27;57.39
62789;BME280;66401;42.016;21.454;2023-08-24T05:53:53;98378.91;;;25.87;57.32
62789;BME280;66401;42.016;21.454;2023-08-24T05:56:21;98382.88;;;25.65;57.65
62789;BME280;66401;42.016;21.454;2023-08-24T05:58:48;98378.19;;;25.81;57.57
62789;BME280;66401;42.016;21.454;2023-08-24T06:01:13;98376.09;;;26.81;55.76
62789;BME280;66401;42.016;21.454;2023-08-24T06:03:39;98380.66;;;27.77;53.35
62789;BME280;66401;42.016;21.454;2023-08-24T06:06:05;98380.53;;;28.18;53.32
62789;BME280;66401;42.016;21.454;2023-08-24T06:08:31;98381.84;;;28.43;51.39
62789;BME280;66401;42.016;21.454;2023-08-24T06:10:58;98377.03;;;28.54;51.77
62789;BME280;66401;42.016;21.454;2023-08-24T06:13:24;98383.72;;;29.35;49.29
62789;BME280;66401;42.016;21.454;2023-08-24T06:15:49;98379.22;;;29.62;47.63
62789;BME280;66401;42.016;21.454;2023-08-24T06:18:14;98387.13;;;29.67;47.86
62789;BME280;66401;42.016;21.454;2023-08-24T06:20:41;98391.25;;;29.73;48.17
62789;BME280;66401;42.016;21.454;2023-08-24T06:23:06;98381.47;;;29.95;47.70
62789;BME280;66401;42.016;21.454;2023-08-24T06:25:33;98385.09;;;29.90;47.63
62789;BME280;66401;42.016;21.454;2023-08-24T06:27:59;98379.91;;;30.11;47.53
62789;BME280;66401;42.016;21.454;2023-08-24T06:30:26;98382.25;;;29.95;46.85
62789;BME280;66401;42.016;21.454;2023-08-24T06:32:52;98376.06;;;29.69;48.86
62789;BME280;66401;42.016;21.454;2023-08-24T06:35:18;98374.09;;;28.95;51.25
62789;BME280;66401;42.016;21.454;2023-08-24T06:37:43;98381.56;;;29.06;49.13
62789;BME280;66401;42.016;21.454;2023-08-24T06:40:09;98357.78;;;28.83;49.90
62789;BME280;66401;42.016;21.454;2023-08-24T06:42:35;98373.50;;;28.75;50.40
62789;BME280;66401;42.016;21.454;2023-08-24T06:45:01;98372.19;;;28.64;51.63
62789;BME280;66401;42.016;21.454;2023-08-24T06:47:26;98374.06;;;28.64;50.70
62789;BME280;66401;42.016;21.454;2023-08-24T06:49:52;98363.16;;;28.29;52.68
62789;BME280;66401;42.016;21.454;2023-08-24T06:52:17;98364.09;;;28.11;52.26
62789;BME280;66401;42.016;21.454;2023-08-24T06:54:45;98374.94;;;28.06;52.99
62789;BME280;66401;42.016;21.454;2023-08-24T06:57:10;98357.06;;;27.79;52.99
62789;BME280;66401;42.016;21.454;2023-08-24T06:59:36;98373.06;;;27.70;55.64
62789;BME280;66401;42.016;21.454;2023-08-24T07:02:02;98367.38;;;27.58;55.78
62789;BME280;66401;42.016;21.454;2023-08-24T07:04:29;98368.59;;;27.65;55.45
62789;BME280;66401;42.016;21.454;2023-08-24T07:06:55;98353.13;;;27.62;55.05
62789;BME280;66401;42.016;21.454;2023-08-24T07:09:20;98352.53;;;27.65;56.61
62789;BME280;66401;42.016;21.454;2023-08-24T07:11:46;98357.13;;;27.87;57.58
62789;BME280;66401;42.016;21.454;2023-08-24T07:14:11;98362.09;;;27.94;53.85
62789;BME280;66401;42.016;21.454;2023-08-24T07:16:37;98349.31;;;27.91;54.52
62789;BME280;66401;42.016;21.454;2023-08-24T07:19:02;98346.97;;;27.98;54.46
62789;BME280;66401;42.016;21.454;2023-08-24T07:21:29;98352.09;;;28.08;56.07
62789;BME280;66401;42.016;21.454;2023-08-24T07:23:55;98344.50;;;28.02;53.25
62789;BME280;66401;42.016;21.454;2023-08-24T07:26:22;98346.03;;;28.16;53.33
62789;BME280;66401;42.016;21.454;2023-08-24T07:28:48;98343.72;;;28.23;52.63
62789;BME280;66401;42.016;21.454;2023-08-24T07:31:13;98351.13;;;28.27;52.77
62789;BME280;66401;42.016;21.454;2023-08-24T07:33:39;98348.38;;;28.32;53.42
62789;BME280;66401;42.016;21.454;2023-08-24T07:36:05;98350.66;;;28.24;52.32
62789;BME280;66401;42.016;21.454;2023-08-24T07:38:31;98355.19;;;28.38;52.17
62789;BME280;66401;42.016;21.454;2023-08-24T07:40:58;98347.84;;;28.52;54.42
62789;BME280;66401;42.016;21.454;2023-08-24T07:43:24;98355.50;;;28.67;51.57
62789;BME280;66401;42.016;21.454;2023-08-24T07:45:49;98352.03;;;28.67;51.37
62789;BME280;66401;42.016;21.454;2023-08-24T07:48:16;98350.91;;;28.90;51.98
62789;BME280;66401;42.016;21.454;2023-08-24T07:50:42;98346.41;;;29.08;50.89
62789;BME280;66401;42.016;21.454;2023-08-24T07:53:07;98340.94;;;29.39;53.29
62789;BME280;66401;42.016;21.454;2023-08-24T07:55:33;98340.97;;;29.48;50.22
62789;BME280;66401;42.016;21.454;2023-08-24T07:57:58;98338.47;;;29.60;51.02
62789;BME280;66401;42.016;21.454;2023-08-24T08:00:24;98335.03;;;29.85;53.36
62789;BME280;66401;42.016;21.454;2023-08-24T08:02:50;98339.59;;;29.93;51.70
62789;BME280;66401;42.016;21.454;2023-08-24T08:05:17;98325.22;;;29.89;49.38
62789;BME280;66401;42.016;21.454;2023-08-24T08:07:42;98323.47;;;30.19;49.80
62789;BME280;66401;42.016;21.454;2023-08-24T08:10:09;98323.66;;;30.23;47.46
62789;BME280;66401;42.016;21.454;2023-08-24T08:12:35;98333.09;;;30.38;47.39
62789;BME280;66401;42.016;21.454;2023-08-24T08:15:01;98337.19;;;30.44;47.29
62789;BME280;66401;42.016;21.454;2023-08-24T08:17:27;98324.31;;;30.58;46.88
62789;BME280;66401;42.016;21.454;2023-08-24T08:19:56;98331.28;;;30.59;48.63
62789;BME280;66401;42.016;21.454;2023-08-24T08:22:22;98317.09;;;30.50;46.40
62789;BME280;66401;42.016;21.454;2023-08-24T08:24:48;98313.75;;;30.62;45.96
62789;BME280;66401;42.016;21.454;2023-08-24T08:27:15;98299.78;;;30.77;45.27
62789;BME280;66401;42.016;21.454;2023-08-24T08:29:40;98311.13;;;30.91;44.18
62789;BME280;66401;42.016;21.454;2023-08-24T08:32:06;98304.31;;;31.15;44.22
62789;BME280;66401;42.016;21.454;2023-08-24T08:34:33;98297.91;;;31.37;48.21
62789;BME280;66401;42.016;21.454;2023-08-24T08:36:58;98298.50;;;31.42;44.99
62789;BME280;66401;42.016;21.454;2023-08-24T08:39:24;98299.03;;;31.56;48.78
62789;BME280;66401;42.016;21.454;2023-08-24T08:41:49;98299.47;;;31.58;44.58
62789;BME280;66401;42.016;21.454;2023-08-24T08:44:15;98303.28;;;31.57;44.04
62789;BME280;66401;42.016;21.454;2023-08-24T08:46:42;98301.09;;;31.72;44.42
62789;BME280;66401;42.016;21.454;2023-08-24T08:49:08;98295.72;;;31.93;46.02
62789;BME280;66401;42.016;21.454;2023-08-24T08:51:37;98290.41;;;32.05;44.04
62789;BME280;66401;42.016;21.454;2023-08-24T08:54:04;98283.22;;;32.21;46.96
62789;BME280;66401;42.016;21.454;2023-08-24T08:56:31;98292.63;;;32.36;44.60
62789;BME280;66401;42.016;21.454;2023-08-24T08:58:58;98282.50;;;32.33;42.73
62789;BME280;66401;42.016;21.454;2023-08-24T09:01:24;98270.19;;;32.44;43.71
62789;BME280;66401;42.016;21.454;2023-08-24T09:03:51;98287.72;;;32.74;43.18
62789;BME280;66401;42.016;21.454;2023-08-24T09:06:17;98288.63;;;32.54;42.01
62789;BME280;66401;42.016;21.454;2023-08-24T09:08:43;98276.94;;;32.74;42.77
62789;BME280;66401;42.016;21.454;2023-08-24T09:11:10;98278.63;;;32.79;42.52
62789;BME280;66401;42.016;21.454;2023-08-24T09:13:35;98268.19;;;33.02;43.01
62789;BME280;66401;42.016;21.454;2023-08-24T09:16:07;98273.78;;;33.21;41.29
62789;BME280;66401;42.016;21.454;2023-08-24T09:18:36;98260.47;;;33.28;40.60
62789;BME280;66401;42.016;21.454;2023-08-24T09:21:08;98251.94;;;33.26;44.21
62789;BME280;66401;42.016;21.454;2023-08-24T09:23:34;98258.03;;;33.23;40.07
62789;BME280;66401;42.016;21.454;2023-08-24T09:26:00;98254.75;;;33.30;40.04
62789;BME280;66401;42.016;21.454;2023-08-24T09:28:25;98260.25;;;33.34;39.96
62789;BME280;66401;42.016;21.454;2023-08-24T09:30:54;98256.19;;;33.52;42.13
62789;BME280;66401;42.016;21.454;2023-08-24T09:33:22;98259.41;;;33.57;39.83
62789;BME280;66401;42.016;21.454;2023-08-24T09:35:54;98241.34;;;33.46;38.64
62789;BME280;66401;42.016;21.454;2023-08-24T09:38:23;98248.72;;;33.61;37.81
62789;BME280;66401;42.016;21.454;2023-08-24T09:40:54;98242.31;;;33.81;39.68
62789;BME280;66401;42.016;21.454;2023-08-24T09:43:21;98233.41;;;33.93;40.10
62789;BME280;66401;42.016;21.454;2023-08-24T09:45:50;98237.00;;;34.13;39.15
62789;BME280;66401;42.016;21.454;2023-08-24T09:48:15;98235.72;;;34.38;36.47
62789;BME280;66401;42.016;21.454;2023-08-24T09:50:44;98229.50;;;34.54;37.03
62789;BME280;66401;42.016;21.454;2023-08-24T09:53:16;98228.88;;;34.76;35.97
62789;BME280;66401;42.016;21.454;2023-08-24T09:55:46;98227.75;;;34.77;35.89
62789;BME280;66401;42.016;21.454;2023-08-24T09:58:14;98191.09;;;34.64;35.71
62789;BME280;66401;42.016;21.454;2023-08-24T10:00:41;98200.53;;;34.70;36.93
62789;BME280;66401;42.016;21.454;2023-08-24T10:03:07;98204.19;;;34.78;34.84
62789;BME280;66401;42.016;21.454;2023-08-24T10:05:33;98202.75;;;34.99;39.01
62789;BME280;66401;42.016;21.454;2023-08-24T10:08:00;98196.66;;;34.87;34.70
62789;BME280;66401;42.016;21.454;2023-08-24T10:10:27;98183.09;;;35.03;36.05
62789;BME280;66401;42.016;21.454;2023-08-24T10:13:05;98164.63;;;34.89;35.56
62789;BME280;66401;42.016;21.454;2023-08-24T10:15:34;98179.53;;;35.18;35.19
62789;BME280;66401;42.016;21.454;2023-08-24T10:18:01;98182.19;;;34.79;35.11
62789;BME280;66401;42.016;21.454;2023-08-24T10:20:27;98172.03;;;34.92;36.51
62789;BME280;66401;42.016;21.454;2023-08-24T10:22:53;98166.97;;;34.90;38.61
62789;BME280;66401;42.016;21.454;2023-08-24T10:25:19;98175.00;;;35.41;38.14
62789;BME280;66401;42.016;21.454;2023-08-24T10:27:46;98156.13;;;35.68;36.14
62789;BME280;66401;42.016;21.454;2023-08-24T10:30:15;98150.59;;;35.61;35.62
62789;BME280;66401;42.016;21.454;2023-08-24T10:32:43;98154.19;;;35.88;34.04
62789;BME280;66401;42.016;21.454;2023-08-24T10:35:11;98140.75;;;35.72;35.29
62789;BME280;66401;42.016;21.454;2023-08-24T10:37:36;98143.84;;;35.93;34.52
62789;BME280;66401;42.016;21.454;2023-08-24T10:40:02;98137.59;;;36.16;34.04
62789;BME280;66401;42.016;21.454;2023-08-24T10:42:43;98137.81;;;36.53;34.36
62789;BME280;66401;42.016;21.454;2023-08-24T10:45:09;98131.81;;;36.40;33.79
62789;BME280;66401;42.016;21.454;2023-08-24T10:47:44;98127.94;;;36.41;33.78
62789;BME280;66401;42.016;21.454;2023-08-24T10:50:11;98118.47;;;36.31;34.50
62789;BME280;66401;42.016;21.454;2023-08-24T10:52:37;98111.38;;;36.23;35.48
62789;BME280;66401;42.016;21.454;2023-08-24T10:55:05;98104.06;;;36.50;32.76
62789;BME280;66401;42.016;21.454;2023-08-24T10:57:55;98101.41;;;36.57;32.55
62789;BME280;66401;42.016;21.454;2023-08-24T11:00:26;98105.38;;;36.63;32.15
62789;BME280;66401;42.016;21.454;2023-08-24T11:02:52;98091.63;;;37.09;32.76
62789;BME280;66401;42.016;21.454;2023-08-24T11:07:56;98088.94;;;37.13;30.53
62789;BME280;66401;42.016;21.454;2023-08-24T11:10:30;98088.25;;;36.86;32.19
62789;BME280;66401;42.016;21.454;2023-08-24T11:13:06;98086.13;;;36.42;32.92
62789;BME280;66401;42.016;21.454;2023-08-24T11:15:33;98078.53;;;36.55;31.69
62789;BME280;66401;42.016;21.454;2023-08-24T11:18:21;98077.56;;;36.40;32.43
62789;BME280;66401;42.016;21.454;2023-08-24T11:20:50;98079.13;;;36.41;31.69
62789;BME280;66401;42.016;21.454;2023-08-24T11:23:17;98075.41;;;35.54;32.12
62789;BME280;66401;42.016;21.454;2023-08-24T11:25:43;98071.94;;;35.80;33.33
62789;BME280;66401;42.016;21.454;2023-08-24T11:28:09;98079.31;;;36.02;33.92
62789;BME280;66401;42.016;21.454;2023-08-24T11:30:35;98077.91;;;36.12;32.75
62789;BME280;66401;42.016;21.454;2023-08-24T11:33:02;98081.66;;;36.30;32.85
62789;BME280;66401;42.016;21.454;2023-08-24T11:35:28;98084.78;;;36.59;33.83
62789;BME280;66401;42.016;21.454;2023-08-24T11:37:55;98089.19;;;36.40;26.91
62789;BME280;66401;42.016;21.454;2023-08-24T11:40:20;98089.94;;;35.88;26.71
62789;BME280;66401;42.016;21.454;2023-08-24T11:42:53;98086.94;;;35.09;29.00
62789;BME280;66401;42.016;21.454;2023-08-24T11:45:20;98081.13;;;34.17;31.16
62789;BME280;66401;42.016;21.454;2023-08-24T11:47:47;98070.63;;;33.68;33.32
62789;BME280;66401;42.016;21.454;2023-08-24T11:50:13;98083.31;;;33.08;36.08
62789;BME280;66401;42.016;21.454;2023-08-24T11:52:41;98112.47;;;32.50;43.61
62789;BME280;66401;42.016;21.454;2023-08-24T11:55:07;98116.75;;;30.82;47.85
62789;BME280;66401;42.016;21.454;2023-08-24T11:57:37;98165.88;;;29.85;48.30
62789;BME280;66401;42.016;21.454;2023-08-24T12:00:04;98185.63;;;28.86;55.12
62789;BME280;66401;42.016;21.454;2023-08-24T12:02:31;98156.94;;;28.95;46.38
62789;BME280;66401;42.016;21.454;2023-08-24T12:04:57;98144.53;;;28.11;60.05
62789;BME280;66401;42.016;21.454;2023-08-24T12:07:24;98136.94;;;26.92;61.54
62789;BME280;66401;42.016;21.454;2023-08-24T12:09:49;98152.53;;;27.26;63.68
62789;BME280;66401;42.016;21.454;2023-08-24T12:12:18;98139.13;;;26.90;65.51
62789;BME280;66401;42.016;21.454;2023-08-24T12:14:46;98147.22;;;26.35;64.20
62789;BME280;66401;42.016;21.454;2023-08-24T12:17:13;98132.84;;;26.04;67.64
62789;BME280;66401;42.016;21.454;2023-08-24T12:19:59;98130.47;;;25.88;71.01
62789;BME280;66401;42.016;21.454;2023-08-24T12:22:32;98107.47;;;25.60;73.70
62789;BME280;66401;42.016;21.454;2023-08-24T12:24:57;98112.06;;;25.73;74.55
62789;BME280;66401;42.016;21.454;2023-08-24T12:27:25;98099.25;;;25.89;73.58
62789;BME280;66401;42.016;21.454;2023-08-24T12:29:53;98083.44;;;25.79;74.34
62789;BME280;66401;42.016;21.454;2023-08-24T12:32:20;98110.47;;;25.72;75.75
62789;BME280;66401;42.016;21.454;2023-08-24T12:34:47;98116.22;;;25.79;74.65
62789;BME280;66401;42.016;21.454;2023-08-24T12:37:13;98111.31;;;26.00;75.50
62789;BME280;66401;42.016;21.454;2023-08-24T12:39:39;98116.75;;;26.36;75.36
62789;BME280;66401;42.016;21.454;2023-08-24T12:42:05;98119.16;;;26.38;76.01
62789;BME280;66401;42.016;21.454;2023-08-24T12:44:32;98088.97;;;25.82;74.35
62789;BME280;66401;42.016;21.454;2023-08-24T12:46:58;98116.84;;;26.04;75.42
62789;BME280;66401;42.016;21.454;2023-08-24T12:49:24;98121.41;;;26.17;78.78
62789;BME280;66401;42.016;21.454;2023-08-24T12:51:49;98105.94;;;25.86;79.91
62789;BME280;66401;42.016;21.454;2023-08-24T12:54:15;98102.63;;;26.08;78.26
62789;BME280;66401;42.016;21.454;2023-08-24T12:56:40;98107.28;;;26.16;79.23